sensor_id;sensor_type;location;lat;lon;timestamp;P1;durP1;ratioP1;P2;durP2;ratioP2
47289;SDS011;33197;52.524;13.444;2023-04-19T00:01:32;8.70;;;4.07;;
47289;SDS011;33197;52.524;13.444;2023-04-19T00:04:00;10.60;;;3.92;;
47289;SDS011;33197;52.524;13.444;2023-04-19T00:06:29;7.97;;;4.28;;
47289;SDS011;33197;52.524;13.444;2023-04-19T00:08:57;8.65;;;3.97;;
47289;SDS011;33197;52.524;13.444;2023-04-19T00:11:24;9.23;;;4.22;;
47289;SDS011;33197;52.524;13.444;2023-04-19T00:13:52;7.18;;;3.45;;
47289;SDS011;33197;52.524;13.444;2023-04-19T00:16:19;11.25;;;3.83;;
47289;SDS011;33197;52.524;13.444;2023-04-19T00:18:47;9.93;;;3.80;;
47289;SDS011;33197;52.524;13.444;2023-04-19T00:21:14;8.82;;;3.65;;
47289;SDS011;33197;52.524;13.444;2023-04-19T00:23:41;6.63;;;3.80;;
47289;SDS011;33197;52.524;13.444;2023-04-19T00:26:08;6.82;;;3.47;;
47289;SDS011;33197;52.524;13.444;2023-04-19T00:28:37;7.32;;;3.67;;
47289;SDS011;33197;52.524;13.444;2023-04-19T00:31:04;9.13;;;3.97;;
47289;SDS011;33197;52.524;13.444;2023-04-19T00:33:31;8.95;;;3.22;;
47289;SDS011;33197;52.524;13.444;2023-04-19T00:35:59;9.55;;;4.20;;
47289;SDS011;33197;52.524;13.444;2023-04-19T00:38:26;7.95;;;3.13;;
47289;SDS011;33197;52.524;13.444;2023-04-19T00:40:53;6.85;;;3.33;;
47289;SDS011;33197;52.524;13.444;2023-04-19T00:43:21;7.68;;;3.55;;
47289;SDS011;33197;52.524;13.444;2023-04-19T00:45:48;8.48;;;4.07;;
47289;SDS011;33197;52.524;13.444;2023-04-19T00:48:15;5.63;;;3.45;;
47289;SDS011;33197;52.524;13.444;2023-04-19T00:50:43;11.60;;;3.35;;
47289;SDS011;33197;52.524;13.444;2023-04-19T00:53:10;15.10;;;3.30;;
47289;SDS011;33197;52.524;13.444;2023-04-19T00:55:38;9.25;;;3.67;;
47289;SDS011;33197;52.524;13.444;2023-04-19T00:58:06;8.73;;;3.67;;
47289;SDS011;33197;52.524;13.444;2023-04-19T01:00:34;6.80;;;3.08;;
47289;SDS011;33197;52.524;13.444;2023-04-19T01:03:02;7.63;;;4.28;;
47289;SDS011;33197;52.524;13.444;2023-04-19T01:05:30;6.47;;;3.55;;
47289;SDS011;33197;52.524;13.444;2023-04-19T01:07:57;6.63;;;3.13;;
47289;SDS011;33197;52.524;13.444;2023-04-19T01:10:24;9.40;;;3.58;;
47289;SDS011;33197;52.524;13.444;2023-04-19T01:12:51;12.82;;;3.63;;
47289;SDS011;33197;52.524;13.444;2023-04-19T01:15:19;9.02;;;2.88;;
47289;SDS011;33197;52.524;13.444;2023-04-19T01:17:46;5.47;;;3.25;;
47289;SDS011;33197;52.524;13.444;2023-04-19T01:20:14;7.35;;;3.47;;
47289;SDS011;33197;52.524;13.444;2023-04-19T01:22:41;6.35;;;3.47;;
47289;SDS011;33197;52.524;13.444;2023-04-19T01:25:08;8.60;;;3.58;;
47289;SDS011;33197;52.524;13.444;2023-04-19T01:27:36;5.13;;;3.13;;
47289;SDS011;33197;52.524;13.444;2023-04-19T01:30:03;8.40;;;3.15;;
47289;SDS011;33197;52.524;13.444;2023-04-19T01:32:31;8.48;;;3.35;;
47289;SDS011;33197;52.524;13.444;2023-04-19T01:34:58;8.90;;;3.95;;
47289;SDS011;33197;52.524;13.444;2023-04-19T01:37:26;5.45;;;3.53;;
47289;SDS011;33197;52.524;13.444;2023-04-19T01:39:53;8.70;;;3.00;;
47289;SDS011;33197;52.524;13.444;2023-04-19T01:42:20;6.30;;;3.22;;
47289;SDS011;33197;52.524;13.444;2023-04-19T01:44:47;5.28;;;3.20;;
47289;SDS011;33197;52.524;13.444;2023-04-19T01:47:15;6.55;;;3.47;;
47289;SDS011;33197;52.524;13.444;2023-04-19T01:49:42;6.30;;;3.53;;
47289;SDS011;33197;52.524;13.444;2023-04-19T01:52:09;8.00;;;3.38;;
47289;SDS011;33197;52.524;13.444;2023-04-19T01:54:37;5.80;;;3.05;;
47289;SDS011;33197;52.524;13.444;2023-04-19T01:57:04;6.95;;;3.33;;
47289;SDS011;33197;52.524;13.444;2023-04-19T01:59:31;5.65;;;2.95;;
47289;SDS011;33197;52.524;13.444;2023-04-19T02:01:58;7.88;;;3.28;;
47289;SDS011;33197;52.524;13.444;2023-04-19T02:04:26;8.43;;;4.03;;
47289;SDS011;33197;52.524;13.444;2023-04-19T02:06:53;9.57;;;3.58;;
47289;SDS011;33197;52.524;13.444;2023-04-19T02:09:20;6.28;;;3.78;;
47289;SDS011;33197;52.524;13.444;2023-04-19T02:11:47;7.53;;;3.67;;
47289;SDS011;33197;52.524;13.444;2023-04-19T02:14:15;6.30;;;3.42;;
47289;SDS011;33197;52.524;13.444;2023-04-19T02:16:43;6.97;;;3.47;;
47289;SDS011;33197;52.524;13.444;2023-04-19T02:19:10;5.10;;;3.20;;
47289;SDS011;33197;52.524;13.444;2023-04-19T02:21:37;8.27;;;3.63;;
47289;SDS011;33197;52.524;13.444;2023-04-19T02:24:04;5.28;;;3.33;;
47289;SDS011;33197;52.524;13.444;2023-04-19T02:26:32;10.95;;;3.97;;
47289;SDS011;33197;52.524;13.444;2023-04-19T02:28:59;7.38;;;3.50;;
47289;SDS011;33197;52.524;13.444;2023-04-19T02:31:26;5.65;;;3.58;;
47289;SDS011;33197;52.524;13.444;2023-04-19T02:33:53;7.43;;;3.85;;
47289;SDS011;33197;52.524;13.444;2023-04-19T02:36:21;4.63;;;3.00;;
47289;SDS011;33197;52.524;13.444;2023-04-19T02:38:48;6.47;;;3.65;;
47289;SDS011;33197;52.524;13.444;2023-04-19T02:41:15;7.80;;;3.22;;
47289;SDS011;33197;52.524;13.444;2023-04-19T02:43:42;6.25;;;3.55;;
47289;SDS011;33197;52.524;13.444;2023-04-19T02:46:10;6.72;;;3.70;;
47289;SDS011;33197;52.524;13.444;2023-04-19T02:48:37;9.00;;;3.50;;
47289;SDS011;33197;52.524;13.444;2023-04-19T02:51:04;7.45;;;3.47;;
47289;SDS011;33197;52.524;13.444;2023-04-19T02:53:32;6.55;;;3.53;;
47289;SDS011;33197;52.524;13.444;2023-04-19T02:55:59;5.00;;;3.30;;
47289;SDS011;33197;52.524;13.444;2023-04-19T02:58:27;8.38;;;3.30;;
47289;SDS011;33197;52.524;13.444;2023-04-19T03:00:54;5.50;;;3.25;;
47289;SDS011;33197;52.524;13.444;2023-04-19T03:03:21;6.82;;;2.80;;
47289;SDS011;33197;52.524;13.444;2023-04-19T03:05:49;6.78;;;3.38;;
47289;SDS011;33197;52.524;13.444;2023-04-19T03:08:16;7.82;;;3.55;;
47289;SDS011;33197;52.524;13.444;2023-04-19T03:10:43;7.40;;;3.53;;
47289;SDS011;33197;52.524;13.444;2023-04-19T03:13:10;7.85;;;3.47;;
47289;SDS011;33197;52.524;13.444;2023-04-19T03:15:37;7.55;;;3.10;;
47289;SDS011;33197;52.524;13.444;2023-04-19T03:18:05;9.95;;;3.80;;
47289;SDS011;33197;52.524;13.444;2023-04-19T03:20:32;6.13;;;3.13;;
47289;SDS011;33197;52.524;13.444;2023-04-19T03:23:00;5.60;;;2.72;;
47289;SDS011;33197;52.524;13.444;2023-04-19T03:25:28;7.05;;;2.95;;
47289;SDS011;33197;52.524;13.444;2023-04-19T03:27:55;5.63;;;3.17;;
47289;SDS011;33197;52.524;13.444;2023-04-19T03:30:22;5.60;;;2.70;;
47289;SDS011;33197;52.524;13.444;2023-04-19T03:32:50;4.60;;;2.90;;
47289;SDS011;33197;52.524;13.444;2023-04-19T03:35:18;5.22;;;2.70;;
47289;SDS011;33197;52.524;13.444;2023-04-19T03:37:46;6.97;;;3.25;;
47289;SDS011;33197;52.524;13.444;2023-04-19T03:40:14;5.88;;;3.38;;
47289;SDS011;33197;52.524;13.444;2023-04-19T03:42:41;4.53;;;2.90;;
47289;SDS011;33197;52.524;13.444;2023-04-19T03:45:08;4.80;;;2.75;;
47289;SDS011;33197;52.524;13.444;2023-04-19T03:47:36;7.45;;;3.35;;
47289;SDS011;33197;52.524;13.444;2023-04-19T03:50:03;6.65;;;2.88;;
47289;SDS011;33197;52.524;13.444;2023-04-19T03:52:31;6.13;;;3.05;;
47289;SDS011;33197;52.524;13.444;2023-04-19T03:54:58;7.35;;;3.30;;
47289;SDS011;33197;52.524;13.444;2023-04-19T03:57:26;5.55;;;2.83;;
47289;SDS011;33197;52.524;13.444;2023-04-19T03:59:53;7.03;;;2.97;;
47289;SDS011;33197;52.524;13.444;2023-04-19T04:02:20;6.05;;;2.92;;
47289;SDS011;33197;52.524;13.444;2023-04-19T04:04:54;6.00;;;2.70;;
47289;SDS011;33197;52.524;13.444;2023-04-19T04:07:21;6.82;;;3.08;;
47289;SDS011;33197;52.524;13.444;2023-04-19T04:09:50;10.02;;;2.65;;
47289;SDS011;33197;52.524;13.444;2023-04-19T04:12:17;6.22;;;3.13;;
47289;SDS011;33197;52.524;13.444;2023-04-19T04:14:45;5.40;;;2.72;;
47289;SDS011;33197;52.524;13.444;2023-04-19T04:17:13;7.88;;;3.15;;
47289;SDS011;33197;52.524;13.444;2023-04-19T04:19:40;7.15;;;3.20;;
47289;SDS011;33197;52.524;13.444;2023-04-19T04:22:07;6.40;;;3.05;;
47289;SDS011;33197;52.524;13.444;2023-04-19T04:24:37;10.02;;;3.25;;
47289;SDS011;33197;52.524;13.444;2023-04-19T04:27:07;5.65;;;2.78;;
47289;SDS011;33197;52.524;13.444;2023-04-19T04:29:38;14.02;;;3.10;;
47289;SDS011;33197;52.524;13.444;2023-04-19T04:32:06;7.85;;;3.45;;
47289;SDS011;33197;52.524;13.444;2023-04-19T04:34:35;5.00;;;3.05;;
47289;SDS011;33197;52.524;13.444;2023-04-19T04:37:03;8.73;;;3.67;;
47289;SDS011;33197;52.524;13.444;2023-04-19T04:39:30;7.20;;;2.88;;
47289;SDS011;33197;52.524;13.444;2023-04-19T04:42:01;16.98;;;3.35;;
47289;SDS011;33197;52.524;13.444;2023-04-19T04:44:29;9.57;;;3.05;;
47289;SDS011;33197;52.524;13.444;2023-04-19T04:46:56;5.15;;;2.70;;
47289;SDS011;33197;52.524;13.444;2023-04-19T04:49:23;6.85;;;3.20;;
47289;SDS011;33197;52.524;13.444;2023-04-19T04:51:50;8.75;;;3.10;;
47289;SDS011;33197;52.524;13.444;2023-04-19T04:54:17;11.65;;;2.92;;
47289;SDS011;33197;52.524;13.444;2023-04-19T04:56:44;5.22;;;2.50;;
47289;SDS011;33197;52.524;13.444;2023-04-19T04:59:12;6.03;;;2.67;;
47289;SDS011;33197;52.524;13.444;2023-04-19T05:01:39;10.38;;;2.60;;
47289;SDS011;33197;52.524;13.444;2023-04-19T05:04:06;13.00;;;3.63;;
47289;SDS011;33197;52.524;13.444;2023-04-19T05:06:34;6.85;;;3.28;;
47289;SDS011;33197;52.524;13.444;2023-04-19T05:09:01;9.98;;;3.33;;
47289;SDS011;33197;52.524;13.444;2023-04-19T05:11:29;7.78;;;3.40;;
47289;SDS011;33197;52.524;13.444;2023-04-19T05:13:56;10.23;;;3.38;;
47289;SDS011;33197;52.524;13.444;2023-04-19T05:16:25;7.18;;;2.60;;
47289;SDS011;33197;52.524;13.444;2023-04-19T05:18:53;8.23;;;2.63;;
47289;SDS011;33197;52.524;13.444;2023-04-19T05:21:20;9.30;;;2.88;;
47289;SDS011;33197;52.524;13.444;2023-04-19T05:23:48;6.10;;;2.75;;
47289;SDS011;33197;52.524;13.444;2023-04-19T05:26:15;10.80;;;3.15;;
47289;SDS011;33197;52.524;13.444;2023-04-19T05:28:43;8.75;;;3.33;;
47289;SDS011;33197;52.524;13.444;2023-04-19T05:31:11;7.00;;;3.20;;
47289;SDS011;33197;52.524;13.444;2023-04-19T05:33:38;6.43;;;2.67;;
47289;SDS011;33197;52.524;13.444;2023-04-19T05:36:05;6.05;;;2.97;;
47289;SDS011;33197;52.524;13.444;2023-04-19T05:38:33;5.13;;;2.60;;
47289;SDS011;33197;52.524;13.444;2023-04-19T05:41:01;5.85;;;2.47;;
47289;SDS011;33197;52.524;13.444;2023-04-19T05:43:29;7.85;;;2.85;;
47289;SDS011;33197;52.524;13.444;2023-04-19T05:45:56;11.18;;;3.13;;
47289;SDS011;33197;52.524;13.444;2023-04-19T05:48:24;6.93;;;2.67;;
47289;SDS011;33197;52.524;13.444;2023-04-19T05:50:52;7.50;;;2.53;;
47289;SDS011;33197;52.524;13.444;2023-04-19T05:53:22;10.13;;;2.75;;
47289;SDS011;33197;52.524;13.444;2023-04-19T05:55:49;6.15;;;1.90;;
47289;SDS011;33197;52.524;13.444;2023-04-19T05:58:17;8.32;;;2.60;;
47289;SDS011;33197;52.524;13.444;2023-04-19T06:00:45;7.95;;;2.65;;
47289;SDS011;33197;52.524;13.444;2023-04-19T06:03:12;6.68;;;2.38;;
47289;SDS011;33197;52.524;13.444;2023-04-19T06:05:40;5.90;;;2.22;;
47289;SDS011;33197;52.524;13.444;2023-04-19T06:08:07;7.93;;;2.67;;
47289;SDS011;33197;52.524;13.444;2023-04-19T06:10:35;5.50;;;2.53;;
47289;SDS011;33197;52.524;13.444;2023-04-19T06:13:21;3.85;;;2.13;;
47289;SDS011;33197;52.524;13.444;2023-04-19T06:15:49;9.95;;;2.33;;
47289;SDS011;33197;52.524;13.444;2023-04-19T06:18:16;8.70;;;2.22;;
47289;SDS011;33197;52.524;13.444;2023-04-19T06:20:45;7.25;;;2.15;;
47289;SDS011;33197;52.524;13.444;2023-04-19T06:23:13;6.85;;;2.08;;
47289;SDS011;33197;52.524;13.444;2023-04-19T06:25:41;6.53;;;2.17;;
47289;SDS011;33197;52.524;13.444;2023-04-19T06:28:09;7.57;;;2.70;;
47289;SDS011;33197;52.524;13.444;2023-04-19T06:30:36;8.15;;;2.17;;
47289;SDS011;33197;52.524;13.444;2023-04-19T06:33:04;3.97;;;2.15;;
47289;SDS011;33197;52.524;13.444;2023-04-19T06:35:31;7.60;;;2.53;;
47289;SDS011;33197;52.524;13.444;2023-04-19T06:37:58;8.80;;;1.92;;
47289;SDS011;33197;52.524;13.444;2023-04-19T06:40:26;5.32;;;1.95;;
47289;SDS011;33197;52.524;13.444;2023-04-19T06:42:55;7.32;;;1.85;;
47289;SDS011;33197;52.524;13.444;2023-04-19T06:45:22;4.40;;;2.03;;
47289;SDS011;33197;52.524;13.444;2023-04-19T06:47:49;4.50;;;2.10;;
47289;SDS011;33197;52.524;13.444;2023-04-19T06:50:17;7.65;;;2.40;;
47289;SDS011;33197;52.524;13.444;2023-04-19T06:52:44;5.28;;;2.08;;
47289;SDS011;33197;52.524;13.444;2023-04-19T06:55:11;12.70;;;2.55;;
47289;SDS011;33197;52.524;13.444;2023-04-19T06:57:38;5.38;;;1.80;;
47289;SDS011;33197;52.524;13.444;2023-04-19T07:00:06;5.28;;;2.20;;
47289;SDS011;33197;52.524;13.444;2023-04-19T07:02:34;2.97;;;1.92;;
47289;SDS011;33197;52.524;13.444;2023-04-19T07:05:01;8.45;;;1.88;;
47289;SDS011;33197;52.524;13.444;2023-04-19T07:07:29;4.35;;;1.95;;
47289;SDS011;33197;52.524;13.444;2023-04-19T07:09:56;8.18;;;2.03;;
47289;SDS011;33197;52.524;13.444;2023-04-19T07:12:23;4.72;;;2.42;;
47289;SDS011;33197;52.524;13.444;2023-04-19T07:14:51;10.52;;;1.98;;
47289;SDS011;33197;52.524;13.444;2023-04-19T07:17:22;7.38;;;2.08;;
47289;SDS011;33197;52.524;13.444;2023-04-19T07:19:49;7.20;;;2.17;;
47289;SDS011;33197;52.524;13.444;2023-04-19T07:22:17;3.33;;;1.88;;
47289;SDS011;33197;52.524;13.444;2023-04-19T07:24:44;6.05;;;2.20;;
47289;SDS011;33197;52.524;13.444;2023-04-19T07:27:11;7.63;;;2.67;;
47289;SDS011;33197;52.524;13.444;2023-04-19T07:29:40;4.95;;;1.88;;
47289;SDS011;33197;52.524;13.444;2023-04-19T07:32:07;6.50;;;2.22;;
47289;SDS011;33197;52.524;13.444;2023-04-19T07:34:36;3.85;;;2.20;;
47289;SDS011;33197;52.524;13.444;2023-04-19T07:37:03;6.85;;;2.20;;
47289;SDS011;33197;52.524;13.444;2023-04-19T07:39:31;7.60;;;2.78;;
47289;SDS011;33197;52.524;13.444;2023-04-19T07:41:58;7.43;;;1.92;;
47289;SDS011;33197;52.524;13.444;2023-04-19T07:44:28;7.25;;;1.70;;
47289;SDS011;33197;52.524;13.444;2023-04-19T07:49:51;9.50;;;2.80;;
47289;SDS011;33197;52.524;13.444;2023-04-19T07:52:19;6.75;;;2.50;;
47289;SDS011;33197;52.524;13.444;2023-04-19T07:57:33;8.25;;;2.58;;
47289;SDS011;33197;52.524;13.444;2023-04-19T08:00:00;6.32;;;2.42;;
47289;SDS011;33197;52.524;13.444;2023-04-19T08:02:28;6.47;;;1.98;;
47289;SDS011;33197;52.524;13.444;2023-04-19T08:04:55;6.82;;;2.53;;
47289;SDS011;33197;52.524;13.444;2023-04-19T08:07:24;5.60;;;2.25;;
47289;SDS011;33197;52.524;13.444;2023-04-19T08:09:52;6.65;;;2.33;;
47289;SDS011;33197;52.524;13.444;2023-04-19T08:12:19;5.18;;;1.85;;
47289;SDS011;33197;52.524;13.444;2023-04-19T08:14:52;8.60;;;2.00;;
47289;SDS011;33197;52.524;13.444;2023-04-19T08:17:37;6.15;;;2.20;;
47289;SDS011;33197;52.524;13.444;2023-04-19T08:20:08;7.18;;;2.40;;
47289;SDS011;33197;52.524;13.444;2023-04-19T08:22:37;6.95;;;2.65;;
47289;SDS011;33197;52.524;13.444;2023-04-19T08:25:06;8.00;;;2.38;;
47289;SDS011;33197;52.524;13.444;2023-04-19T08:27:34;9.27;;;2.50;;
47289;SDS011;33197;52.524;13.444;2023-04-19T08:30:02;8.60;;;2.65;;
47289;SDS011;33197;52.524;13.444;2023-04-19T08:32:30;8.20;;;2.10;;
47289;SDS011;33197;52.524;13.444;2023-04-19T08:34:57;4.90;;;2.50;;
47289;SDS011;33197;52.524;13.444;2023-04-19T08:37:26;11.80;;;2.67;;
47289;SDS011;33197;52.524;13.444;2023-04-19T08:39:54;7.53;;;2.45;;
47289;SDS011;33197;52.524;13.444;2023-04-19T08:42:21;10.18;;;2.38;;
47289;SDS011;33197;52.524;13.444;2023-04-19T08:45:02;7.80;;;2.45;;
47289;SDS011;33197;52.524;13.444;2023-04-19T08:47:36;5.53;;;2.70;;
47289;SDS011;33197;52.524;13.444;2023-04-19T08:50:24;9.85;;;2.72;;
47289;SDS011;33197;52.524;13.444;2023-04-19T08:53:02;6.88;;;2.53;;
47289;SDS011;33197;52.524;13.444;2023-04-19T08:55:50;5.15;;;2.40;;
47289;SDS011;33197;52.524;13.444;2023-04-19T08:58:24;5.10;;;2.90;;
47289;SDS011;33197;52.524;13.444;2023-04-19T09:01:07;6.90;;;2.45;;
47289;SDS011;33197;52.524;13.444;2023-04-19T09:03:43;6.10;;;2.17;;
47289;SDS011;33197;52.524;13.444;2023-04-19T09:06:36;6.10;;;2.28;;
47289;SDS011;33197;52.524;13.444;2023-04-19T09:12:02;4.38;;;1.80;;
47289;SDS011;33197;52.524;13.444;2023-04-19T09:14:29;5.80;;;2.53;;
47289;SDS011;33197;52.524;13.444;2023-04-19T09:17:12;6.65;;;2.20;;
47289;SDS011;33197;52.524;13.444;2023-04-19T09:19:46;6.40;;;2.55;;
47289;SDS011;33197;52.524;13.444;2023-04-19T09:22:14;7.75;;;2.15;;
47289;SDS011;33197;52.524;13.444;2023-04-19T09:24:41;4.82;;;2.28;;
47289;SDS011;33197;52.524;13.444;2023-04-19T09:27:12;5.90;;;2.60;;
47289;SDS011;33197;52.524;13.444;2023-04-19T09:29:45;8.02;;;2.17;;
47289;SDS011;33197;52.524;13.444;2023-04-19T09:32:18;7.75;;;2.70;;
47289;SDS011;33197;52.524;13.444;2023-04-19T09:34:56;8.32;;;2.30;;
47289;SDS011;33197;52.524;13.444;2023-04-19T09:37:24;7.72;;;2.30;;
47289;SDS011;33197;52.524;13.444;2023-04-19T09:40:22;6.75;;;2.80;;
47289;SDS011;33197;52.524;13.444;2023-04-19T09:42:50;6.65;;;2.47;;
47289;SDS011;33197;52.524;13.444;2023-04-19T09:45:20;9.45;;;2.47;;
47289;SDS011;33197;52.524;13.444;2023-04-19T09:47:59;9.63;;;2.72;;
47289;SDS011;33197;52.524;13.444;2023-04-19T09:53:07;15.35;;;3.40;;
47289;SDS011;33197;52.524;13.444;2023-04-19T09:55:36;5.93;;;2.83;;
47289;SDS011;33197;52.524;13.444;2023-04-19T09:58:24;4.10;;;2.15;;
47289;SDS011;33197;52.524;13.444;2023-04-19T10:01:01;6.40;;;3.08;;
47289;SDS011;33197;52.524;13.444;2023-04-19T10:03:43;4.40;;;2.17;;
47289;SDS011;33197;52.524;13.444;2023-04-19T10:06:16;6.22;;;2.58;;
47289;SDS011;33197;52.524;13.444;2023-04-19T10:08:48;5.00;;;2.58;;
47289;SDS011;33197;52.524;13.444;2023-04-19T10:11:16;5.63;;;2.72;;
47289;SDS011;33197;52.524;13.444;2023-04-19T10:13:44;4.55;;;2.20;;
47289;SDS011;33197;52.524;13.444;2023-04-19T10:16:13;6.28;;;2.30;;
47289;SDS011;33197;52.524;13.444;2023-04-19T10:18:47;8.52;;;2.70;;
47289;SDS011;33197;52.524;13.444;2023-04-19T10:21:16;9.88;;;2.60;;
47289;SDS011;33197;52.524;13.444;2023-04-19T10:23:44;8.38;;;2.67;;
47289;SDS011;33197;52.524;13.444;2023-04-19T10:26:11;7.57;;;2.13;;
47289;SDS011;33197;52.524;13.444;2023-04-19T10:28:38;7.00;;;2.45;;
47289;SDS011;33197;52.524;13.444;2023-04-19T10:31:10;6.45;;;2.22;;
47289;SDS011;33197;52.524;13.444;2023-04-19T10:33:39;4.85;;;2.30;;
47289;SDS011;33197;52.524;13.444;2023-04-19T10:36:07;5.13;;;2.22;;
47289;SDS011;33197;52.524;13.444;2023-04-19T10:38:42;7.68;;;2.67;;
47289;SDS011;33197;52.524;13.444;2023-04-19T10:41:14;5.40;;;2.55;;
47289;SDS011;33197;52.524;13.444;2023-04-19T10:47:02;4.95;;;2.90;;
47289;SDS011;33197;52.524;13.444;2023-04-19T10:49:31;7.57;;;2.45;;
47289;SDS011;33197;52.524;13.444;2023-04-19T10:52:26;10.95;;;2.53;;
47289;SDS011;33197;52.524;13.444;2023-04-19T10:54:55;8.00;;;2.65;;
47289;SDS011;33197;52.524;13.444;2023-04-19T10:57:22;6.95;;;3.05;;
47289;SDS011;33197;52.524;13.444;2023-04-19T11:00:16;6.78;;;2.97;;
47289;SDS011;33197;52.524;13.444;2023-04-19T11:02:47;8.40;;;2.55;;
47289;SDS011;33197;52.524;13.444;2023-04-19T11:05:15;5.78;;;2.38;;
47289;SDS011;33197;52.524;13.444;2023-04-19T11:07:45;6.25;;;2.60;;
47289;SDS011;33197;52.524;13.444;2023-04-19T11:10:12;6.82;;;2.13;;
47289;SDS011;33197;52.524;13.444;2023-04-19T11:12:54;5.18;;;2.13;;
47289;SDS011;33197;52.524;13.444;2023-04-19T11:15:21;4.38;;;2.22;;
47289;SDS011;33197;52.524;13.444;2023-04-19T11:17:50;11.57;;;2.80;;
47289;SDS011;33197;52.524;13.444;2023-04-19T11:20:30;8.52;;;2.50;;
47289;SDS011;33197;52.524;13.444;2023-04-19T11:22:57;9.20;;;2.40;;
47289;SDS011;33197;52.524;13.444;2023-04-19T11:25:26;7.85;;;3.10;;
47289;SDS011;33197;52.524;13.444;2023-04-19T11:27:57;7.72;;;2.13;;
47289;SDS011;33197;52.524;13.444;2023-04-19T11:30:29;5.50;;;3.03;;
47289;SDS011;33197;52.524;13.444;2023-04-19T11:32:56;14.85;;;2.83;;
47289;SDS011;33197;52.524;13.444;2023-04-19T11:35:27;9.68;;;3.35;;
47289;SDS011;33197;52.524;13.444;2023-04-19T11:37:57;6.38;;;2.38;;
47289;SDS011;33197;52.524;13.444;2023-04-19T11:40:24;8.10;;;2.55;;
47289;SDS011;33197;52.524;13.444;2023-04-19T11:42:53;6.72;;;2.72;;
47289;SDS011;33197;52.524;13.444;2023-04-19T11:45:35;6.80;;;2.85;;
47289;SDS011;33197;52.524;13.444;2023-04-19T11:48:06;7.20;;;2.60;;
47289;SDS011;33197;52.524;13.444;2023-04-19T11:50:40;9.10;;;2.72;;
47289;SDS011;33197;52.524;13.444;2023-04-19T11:55:41;12.00;;;4.15;;
47289;SDS011;33197;52.524;13.444;2023-04-19T11:58:27;12.70;;;3.92;;
47289;SDS011;33197;52.524;13.444;2023-04-19T12:00:56;12.57;;;6.43;;
47289;SDS011;33197;52.524;13.444;2023-04-19T12:03:32;13.25;;;3.97;;
47289;SDS011;33197;52.524;13.444;2023-04-19T12:06:02;13.20;;;4.07;;
47289;SDS011;33197;52.524;13.444;2023-04-19T12:08:34;12.52;;;4.75;;
47289;SDS011;33197;52.524;13.444;2023-04-19T12:11:02;10.30;;;3.22;;
47289;SDS011;33197;52.524;13.444;2023-04-19T12:13:30;8.27;;;3.85;;
47289;SDS011;33197;52.524;13.444;2023-04-19T12:15:58;9.13;;;3.45;;
47289;SDS011;33197;52.524;13.444;2023-04-19T12:18:26;9.82;;;3.13;;
47289;SDS011;33197;52.524;13.444;2023-04-19T12:20:53;7.97;;;2.50;;
47289;SDS011;33197;52.524;13.444;2023-04-19T12:23:21;7.45;;;2.97;;
47289;SDS011;33197;52.524;13.444;2023-04-19T12:25:48;8.45;;;2.60;;
47289;SDS011;33197;52.524;13.444;2023-04-19T12:28:15;5.20;;;2.30;;
47289;SDS011;33197;52.524;13.444;2023-04-19T12:30:43;6.53;;;2.92;;
47289;SDS011;33197;52.524;13.444;2023-04-19T12:33:10;8.05;;;2.67;;
47289;SDS011;33197;52.524;13.444;2023-04-19T12:35:38;8.93;;;2.42;;
47289;SDS011;33197;52.524;13.444;2023-04-19T12:38:05;9.77;;;2.65;;
47289;SDS011;33197;52.524;13.444;2023-04-19T12:40:32;8.98;;;2.92;;
47289;SDS011;33197;52.524;13.444;2023-04-19T12:43:00;8.57;;;2.63;;
47289;SDS011;33197;52.524;13.444;2023-04-19T12:45:28;7.95;;;3.20;;
47289;SDS011;33197;52.524;13.444;2023-04-19T12:47:55;9.40;;;2.70;;
47289;SDS011;33197;52.524;13.444;2023-04-19T12:50:23;6.13;;;3.13;;
47289;SDS011;33197;52.524;13.444;2023-04-19T12:52:50;9.57;;;2.78;;
47289;SDS011;33197;52.524;13.444;2023-04-19T12:55:19;5.30;;;2.70;;
47289;SDS011;33197;52.524;13.444;2023-04-19T12:57:46;8.95;;;3.15;;
47289;SDS011;33197;52.524;13.444;2023-04-19T13:00:13;6.72;;;2.55;;
47289;SDS011;33197;52.524;13.444;2023-04-19T13:02:41;8.65;;;2.95;;
47289;SDS011;33197;52.524;13.444;2023-04-19T13:05:10;5.65;;;3.13;;
47289;SDS011;33197;52.524;13.444;2023-04-19T13:07:38;7.63;;;2.97;;
47289;SDS011;33197;52.524;13.444;2023-04-19T13:10:06;6.75;;;3.15;;
47289;SDS011;33197;52.524;13.444;2023-04-19T13:12:34;8.48;;;3.03;;
47289;SDS011;33197;52.524;13.444;2023-04-19T13:15:02;10.15;;;2.80;;
47289;SDS011;33197;52.524;13.444;2023-04-19T13:17:32;7.07;;;2.90;;
47289;SDS011;33197;52.524;13.444;2023-04-19T13:20:02;6.75;;;2.70;;
47289;SDS011;33197;52.524;13.444;2023-04-19T13:22:29;7.82;;;3.47;;
47289;SDS011;33197;52.524;13.444;2023-04-19T13:24:57;8.77;;;2.63;;
47289;SDS011;33197;52.524;13.444;2023-04-19T13:27:24;6.47;;;2.58;;
47289;SDS011;33197;52.524;13.444;2023-04-19T13:29:54;7.10;;;2.70;;
47289;SDS011;33197;52.524;13.444;2023-04-19T13:32:22;6.35;;;2.85;;
47289;SDS011;33197;52.524;13.444;2023-04-19T13:34:50;10.23;;;2.75;;
47289;SDS011;33197;52.524;13.444;2023-04-19T13:37:17;6.40;;;2.78;;
47289;SDS011;33197;52.524;13.444;2023-04-19T13:39:44;8.50;;;2.72;;
47289;SDS011;33197;52.524;13.444;2023-04-19T13:42:12;6.93;;;2.42;;
47289;SDS011;33197;52.524;13.444;2023-04-19T13:44:40;9.32;;;2.88;;
47289;SDS011;33197;52.524;13.444;2023-04-19T13:47:07;7.65;;;2.40;;
47289;SDS011;33197;52.524;13.444;2023-04-19T13:49:34;8.85;;;2.70;;
47289;SDS011;33197;52.524;13.444;2023-04-19T13:52:01;6.43;;;2.45;;
47289;SDS011;33197;52.524;13.444;2023-04-19T13:54:29;9.82;;;3.47;;
47289;SDS011;33197;52.524;13.444;2023-04-19T13:56:56;7.20;;;2.28;;
47289;SDS011;33197;52.524;13.444;2023-04-19T13:59:23;11.93;;;2.88;;
47289;SDS011;33197;52.524;13.444;2023-04-19T14:01:51;6.13;;;2.58;;
47289;SDS011;33197;52.524;13.444;2023-04-19T14:04:22;6.95;;;2.80;;
47289;SDS011;33197;52.524;13.444;2023-04-19T14:06:50;5.10;;;2.60;;
47289;SDS011;33197;52.524;13.444;2023-04-19T14:09:18;7.95;;;3.38;;
47289;SDS011;33197;52.524;13.444;2023-04-19T14:11:45;6.10;;;2.70;;
47289;SDS011;33197;52.524;13.444;2023-04-19T14:14:14;5.85;;;2.60;;
47289;SDS011;33197;52.524;13.444;2023-04-19T14:16:42;5.03;;;2.72;;
47289;SDS011;33197;52.524;13.444;2023-04-19T14:19:10;11.48;;;3.35;;
47289;SDS011;33197;52.524;13.444;2023-04-19T14:21:37;6.75;;;2.85;;
47289;SDS011;33197;52.524;13.444;2023-04-19T14:24:04;8.27;;;2.70;;
47289;SDS011;33197;52.524;13.444;2023-04-19T14:26:31;8.85;;;2.72;;
47289;SDS011;33197;52.524;13.444;2023-04-19T14:28:59;7.88;;;3.33;;
47289;SDS011;33197;52.524;13.444;2023-04-19T14:31:26;6.38;;;3.05;;
47289;SDS011;33197;52.524;13.444;2023-04-19T14:33:54;5.55;;;2.53;;
47289;SDS011;33197;52.524;13.444;2023-04-19T14:36:22;8.63;;;3.17;;
47289;SDS011;33197;52.524;13.444;2023-04-19T14:38:50;8.13;;;3.30;;
47289;SDS011;33197;52.524;13.444;2023-04-19T14:41:17;7.07;;;3.28;;
47289;SDS011;33197;52.524;13.444;2023-04-19T14:43:45;9.98;;;2.78;;
47289;SDS011;33197;52.524;13.444;2023-04-19T14:46:12;9.85;;;3.30;;
47289;SDS011;33197;52.524;13.444;2023-04-19T14:48:40;7.47;;;3.30;;
47289;SDS011;33197;52.524;13.444;2023-04-19T14:51:07;10.57;;;3.88;;
47289;SDS011;33197;52.524;13.444;2023-04-19T14:53:34;10.75;;;4.00;;
47289;SDS011;33197;52.524;13.444;2023-04-19T14:56:02;10.77;;;3.60;;
47289;SDS011;33197;52.524;13.444;2023-04-19T14:58:32;9.15;;;4.57;;
47289;SDS011;33197;52.524;13.444;2023-04-19T15:00:59;10.02;;;3.92;;